Time;durP1;ratioP1;P1;durP2;ratioP2;P2;SDS_P1;SDS_P2;PMS_P1;PMS_P2;Temp;Humidity;BMP_temperature;BMP_pressure;BME280_temperature;BME280_humidity;BME280_pressure;Samples;Min_cycle;Max_cycle;Signal;HPM_P1;HPM_P2
2021/09/15 00:00:40;;;;;;;0.70;0.68;;;7.30;99.90;;;;;;5010282;28;20149;-65
2021/09/15 00:03:07;;;;;;;1.40;1.02;;;7.30;99.90;;;;;;5010194;28;20058;-65
2021/09/15 00:05:34;;;;;;;1.05;0.95;;;7.30;99.90;;;;;;5008746;28;20112;-63
2021/09/15 00:08:01;;;;;;;1.05;0.95;;;7.30;99.90;;;;;;5009671;28;20070;-64
2021/09/15 00:10:28;;;;;;;1.38;1.05;;;7.30;99.90;;;;;;5010415;28;20038;-63
2021/09/15 00:12:55;;;;;;;2.13;1.15;;;7.30;99.90;;;;;;5010211;28;20069;-65
2021/09/15 00:15:21;;;;;;;1.30;0.90;;;7.30;99.90;;;;;;5010232;28;20045;-63
2021/09/15 00:17:48;;;;;;;1.40;0.98;;;7.30;99.90;;;;;;5008945;28;20464;-64
2021/09/15 00:20:15;;;;;;;1.48;1.17;;;7.20;99.90;;;;;;5010201;28;20413;-63
2021/09/15 00:22:42;;;;;;;1.63;1.00;;;7.20;99.90;;;;;;5010527;28;20084;-63
2021/09/15 00:25:09;;;;;;;1.00;0.80;;;7.20;99.90;;;;;;5010427;28;20404;-65
2021/09/15 00:27:36;;;;;;;4.10;1.42;;;7.10;99.90;;;;;;5008810;28;20138;-68
2021/09/15 00:30:04;;;;;;;2.92;1.27;;;7.20;99.90;;;;;;5010276;28;20042;-65
2021/09/15 00:32:30;;;;;;;1.80;1.38;;;7.10;99.90;;;;;;5010064;28;20642;-64
2021/09/15 00:34:58;;;;;;;1.08;0.90;;;7.10;99.90;;;;;;5009976;28;20046;-67
2021/09/15 00:37:25;;;;;;;2.63;0.98;;;7.10;99.90;;;;;;5010114;28;20042;-63
2021/09/15 00:39:52;;;;;;;1.25;1.10;;;7.10;99.90;;;;;;5008995;28;20065;-64
2021/09/15 00:42:20;;;;;;;1.15;1.00;;;7.20;99.90;;;;;;5009932;28;20030;-70
2021/09/15 00:44:46;;;;;;;2.63;1.13;;;7.20;99.90;;;;;;5009909;28;20054;-63
2021/09/15 00:47:15;;;;;;;1.38;1.13;;;7.20;99.90;;;;;;5010184;28;20516;-64
2021/09/15 00:49:42;;;;;;;2.60;1.00;;;7.20;99.90;;;;;;5008575;28;20057;-65
2021/09/15 00:52:09;;;;;;;1.55;1.30;;;7.20;99.90;;;;;;5009810;28;20046;-64
2021/09/15 00:54:37;;;;;;;1.25;1.15;;;7.30;99.90;;;;;;5010065;28;20420;-65
2021/09/15 00:57:04;;;;;;;1.50;1.15;;;7.30;99.90;;;;;;5009993;28;20060;-66
2021/09/15 00:59:31;;;;;;;1.17;0.90;;;7.30;99.90;;;;;;5006730;28;20057;-65
2021/09/15 01:02:00;;;;;;;1.50;1.13;;;7.30;99.90;;;;;;5018440;23;20046;-67
2021/09/15 01:04:28;;;;;;;1.95;1.73;;;7.30;99.90;;;;;;5008145;28;20104;-64
2021/09/15 01:06:57;;;;;;;1.40;1.30;;;7.30;99.90;;;;;;5008683;28;20045;-62
2021/09/15 01:09:30;;;;;;;1.02;1.00;;;7.30;99.90;;;;;;5008805;28;20045;-64
2021/09/15 01:12:00;;;;;;;1.58;1.48;;;7.30;99.90;;;;;;5009432;28;20042;-64
2021/09/15 01:14:40;;;;;;;4.47;1.80;;;7.40;99.90;;;;;;5008238;28;20046;-66
2021/09/15 01:17:45;;;;;;;1.15;1.05;;;7.40;99.90;;;;;;4966895;28;20055;-65
2021/09/15 01:20:37;;;;;;;3.80;1.80;;;7.40;99.90;;;;;;4970956;28;20061;-63
2021/09/15 01:23:22;;;;;;;1.50;1.20;;;7.40;99.90;;;;;;5003311;28;20045;-67
2021/09/15 01:26:15;;;;;;;1.10;0.90;;;7.40;99.90;;;;;;4996121;28;20061;-65
2021/09/15 01:29:00;;;;;;;2.38;1.33;;;7.50;99.90;;;;;;5013398;28;20530;-63
2021/09/15 01:31:28;;;;;;;1.25;0.98;;;7.50;99.90;;;;;;5011786;28;20058;-66
2021/09/15 01:33:54;;;;;;;1.00;0.93;;;7.50;99.90;;;;;;5011503;28;20062;-66
2021/09/15 01:36:22;;;;;;;1.20;0.90;;;7.40;99.90;;;;;;5028256;28;20042;-65
2021/09/15 01:38:49;;;;;;;1.63;1.33;;;7.40;99.90;;;;;;4995716;28;20415;-65
2021/09/15 01:41:17;;;;;;;1.73;1.42;;;7.40;99.90;;;;;;5011725;28;20121;-63
2021/09/15 01:43:51;;;;;;;1.10;1.00;;;7.40;99.90;;;;;;5011465;28;20046;-63
2021/09/15 01:46:18;;;;;;;1.13;1.02;;;7.40;99.90;;;;;;5028138;28;20488;-62
2021/09/15 01:48:45;;;;;;;1.50;1.23;;;7.40;99.90;;;;;;5011533;28;20048;-65
2021/09/15 01:51:12;;;;;;;1.52;1.40;;;7.30;99.90;;;;;;5011433;28;20076;-62
2021/09/15 01:53:39;;;;;;;3.28;1.40;;;7.30;99.90;;;;;;5009888;28;20529;-63
2021/09/15 01:56:07;;;;;;;1.08;0.98;;;7.30;99.90;;;;;;5011105;28;20388;-64
2021/09/15 01:58:49;;;;;;;1.88;1.65;;;7.30;99.90;;;;;;5011207;28;20077;-63
2021/09/15 02:01:33;;;;;;;1.52;1.13;;;7.30;99.90;;;;;;5009540;28;20057;-63
2021/09/15 02:04:40;;;;;;;1.67;1.23;;;7.30;99.90;;;;;;4999926;28;20468;-69
2021/09/15 02:07:28;;;;;;;0.90;0.90;;;7.30;99.90;;;;;;5026105;28;20111;-71
2021/09/15 02:10:18;;;;;;;2.30;1.20;;;7.20;99.90;;;;;;5011137;28;20044;-61
2021/09/15 02:12:45;;;;;;;1.60;1.17;;;7.20;99.90;;;;;;5027244;28;20060;-67
2021/09/15 02:15:13;;;;;;;2.80;1.42;;;7.20;99.90;;;;;;5011191;28;20125;-62
2021/09/15 02:17:44;;;;;;;2.42;1.25;;;7.20;99.90;;;;;;5025688;28;20080;-64
2021/09/15 02:20:27;;;;;;;2.53;1.67;;;7.20;99.90;;;;;;5010534;28;20037;-63
2021/09/15 02:23:06;;;;;;;1.20;1.10;;;7.20;99.90;;;;;;5010419;28;20045;-66
2021/09/15 02:26:00;;;;;;;1.15;1.05;;;7.20;99.90;;;;;;5009360;28;20456;-68
2021/09/15 02:28:36;;;;;;;2.47;1.77;;;7.20;99.90;;;;;;5010600;28;20121;-62
2021/09/15 02:31:21;;;;;;;1.77;1.45;;;7.20;99.90;;;;;;5010291;28;20037;-67
2021/09/15 02:34:01;;;;;;;2.65;1.13;;;7.30;99.90;;;;;;5009718;28;20046;-66
2021/09/15 02:36:36;;;;;;;1.45;1.25;;;7.30;99.90;;;;;;5010525;28;20045;-66
2021/09/15 02:39:10;;;;;;;1.77;1.45;;;7.30;99.90;;;;;;5010734;28;20048;-64
2021/09/15 02:42:00;;;;;;;1.73;1.63;;;7.40;99.90;;;;;;5004726;28;20038;-63
2021/09/15 02:44:32;;;;;;;1.90;1.40;;;7.50;99.90;;;;;;5010443;28;20479;-66
2021/09/15 02:47:08;;;;;;;1.83;1.73;;;7.50;99.90;;;;;;5010335;28;20102;-63
2021/09/15 02:49:54;;;;;;;4.07;2.13;;;7.60;99.90;;;;;;5010578;28;20064;-62
2021/09/15 02:52:32;;;;;;;1.70;1.52;;;7.60;99.90;;;;;;5010320;28;20123;-62
2021/09/15 02:55:18;;;;;;;2.15;1.65;;;7.60;99.90;;;;;;5011518;28;20063;-66
2021/09/15 02:57:47;;;;;;;2.60;1.20;;;7.70;99.90;;;;;;5008811;28;20038;-65
2021/09/15 03:00:27;;;;;;;1.55;1.10;;;7.70;99.90;;;;;;5010234;28;20279;-62
2021/09/15 03:03:03;;;;;;;2.05;1.73;;;7.70;99.90;;;;;;5009698;28;20385;-62
2021/09/15 03:05:50;;;;;;;3.45;1.38;;;7.80;99.90;;;;;;5009593;28;20061;-66
2021/09/15 03:08:35;;;;;;;1.88;1.77;;;7.80;99.90;;;;;;5011586;28;20044;-64
2021/09/15 03:11:03;;;;;;;2.13;1.63;;;7.80;99.90;;;;;;5009820;28;20042;-62
2021/09/15 03:13:30;;;;;;;1.65;1.23;;;7.90;99.90;;;;;;5009912;28;20041;-62
2021/09/15 03:15:57;;;;;;;1.70;1.40;;;7.90;99.90;;;;;;5009604;28;20121;-64
2021/09/15 03:18:25;;;;;;;2.63;1.70;;;7.90;99.90;;;;;;5026146;28;20049;-61
2021/09/15 03:20:52;;;;;;;2.85;2.20;;;7.90;99.90;;;;;;5009785;28;20058;-66
2021/09/15 03:23:20;;;;;;;1.85;1.52;;;7.90;99.90;;;;;;5010962;28;20076;-68
2021/09/15 03:25:47;;;;;;;2.60;1.50;;;7.90;99.90;;;;;;5008187;28;20080;-62
2021/09/15 03:28:14;;;;;;;3.63;2.63;;;8.00;99.90;;;;;;5010138;28;20054;-64
2021/09/15 03:30:41;;;;;;;2.55;2.10;;;8.00;99.90;;;;;;5009492;28;20048;-65
2021/09/15 03:33:08;;;;;;;2.60;2.00;;;8.10;99.90;;;;;;5009571;28;20069;-61
2021/09/15 03:35:35;;;;;;;2.42;2.17;;;8.10;99.90;;;;;;5008051;28;20038;-63
2021/09/15 03:38:02;;;;;;;1.95;1.75;;;8.10;99.90;;;;;;5009328;28;20042;-61
2021/09/15 03:40:29;;;;;;;2.28;1.90;;;8.20;99.90;;;;;;5009433;28;20042;-65
2021/09/15 03:42:56;;;;;;;2.83;2.30;;;8.20;99.90;;;;;;5009960;28;20133;-63
2021/09/15 03:45:23;;;;;;;2.20;1.83;;;8.20;99.90;;;;;;5009274;28;20126;-62
2021/09/15 03:47:50;;;;;;;3.03;2.78;;;8.20;99.90;;;;;;5008322;28;20398;-62
2021/09/15 03:50:18;;;;;;;4.68;1.95;;;8.20;99.90;;;;;;5009235;28;20042;-65
2021/09/15 03:52:46;;;;;;;2.05;1.85;;;8.30;99.90;;;;;;5010616;28;20120;-64
2021/09/15 03:55:13;;;;;;;2.42;2.13;;;8.30;99.90;;;;;;5009435;28;20505;-61
2021/09/15 03:57:40;;;;;;;2.83;2.40;;;8.30;99.90;;;;;;5007667;28;20046;-66
2021/09/15 04:00:11;;;;;;;2.67;2.10;;;8.30;99.90;;;;;;5025551;28;20037;-64
2021/09/15 04:02:38;;;;;;;3.00;2.33;;;8.20;99.90;;;;;;5010447;28;20056;-62
2021/09/15 04:05:10;;;;;;;2.67;2.47;;;8.20;99.90;;;;;;5025873;28;20435;-62
2021/09/15 04:07:39;;;;;;;2.00;1.83;;;8.20;99.90;;;;;;5007726;28;20072;-64
2021/09/15 04:10:07;;;;;;;4.47;2.55;;;8.30;99.90;;;;;;5008784;28;20046;-63
2021/09/15 04:12:34;;;;;;;2.47;2.28;;;8.30;99.90;;;;;;5025300;28;20046;-68
2021/09/15 04:15:02;;;;;;;2.38;2.17;;;8.40;99.90;;;;;;5010287;28;20064;-62
2021/09/15 04:17:29;;;;;;;3.42;2.75;;;8.40;99.90;;;;;;5007397;28;20100;-65
2021/09/15 04:19:56;;;;;;;2.70;2.45;;;8.40;99.90;;;;;;5008685;28;20080;-72
2021/09/15 04:22:23;;;;;;;3.08;2.47;;;8.50;99.90;;;;;;5010387;28;20046;-65
2021/09/15 04:33:05;;;;;;;3.90;3.17;;;8.70;99.90;;;;;;5025479;28;20046;-66
2021/09/15 04:35:33;;;;;;;3.03;2.70;;;8.70;99.90;;;;;;5008879;28;20473;-64
2021/09/15 04:37:59;;;;;;;3.45;3.17;;;8.80;99.90;;;;;;5009043;28;20117;-64
2021/09/15 04:40:26;;;;;;;4.25;3.28;;;8.90;99.90;;;;;;5008690;28;20041;-65
2021/09/15 04:42:53;;;;;;;4.40;2.63;;;8.90;99.90;;;;;;5010009;28;20503;-66
2021/09/15 04:45:20;;;;;;;4.93;3.80;;;8.90;99.90;;;;;;5008673;28;20077;-69
2021/09/15 04:47:48;;;;;;;3.88;3.13;;;9.00;99.90;;;;;;4991146;28;20505;-65
2021/09/15 04:50:15;;;;;;;5.00;3.10;;;9.10;99.90;;;;;;5025079;28;20037;-63
2021/09/15 04:52:43;;;;;;;5.63;3.80;;;9.20;99.90;;;;;;5008628;28;20407;-67
2021/09/15 04:55:10;;;;;;;8.07;4.25;;;9.20;99.90;;;;;;5012128;28;20053;-61
2021/09/15 04:57:37;;;;;;;10.43;4.10;;;9.20;99.90;;;;;;5012760;28;20433;-64
2021/09/15 05:00:05;;;;;;;10.13;4.63;;;9.30;99.90;;;;;;5012152;28;20038;-66
2021/09/15 05:02:34;;;;;;;12.30;4.07;;;9.40;99.90;;;;;;5011819;28;20038;-61
2021/09/15 05:05:10;;;;;;;6.70;3.75;;;9.40;99.90;;;;;;5010701;28;20077;-65
2021/09/15 05:07:42;;;;;;;8.07;3.75;;;9.50;99.90;;;;;;5024611;28;20057;-64
2021/09/15 05:10:09;;;;;;;16.88;5.35;;;9.50;99.90;;;;;;5009347;28;20062;-73
2021/09/15 05:12:37;;;;;;;10.77;4.13;;;9.60;99.90;;;;;;5010847;28;20053;-66
2021/09/15 05:15:05;;;;;;;11.13;4.72;;;9.70;99.90;;;;;;5008983;28;20042;-63
2021/09/15 05:17:33;;;;;;;5.50;3.63;;;9.70;99.90;;;;;;5009550;28;20109;-71
2021/09/15 05:20:00;;;;;;;7.10;3.70;;;9.80;99.90;;;;;;5010233;28;20072;-75
2021/09/15 05:22:27;;;;;;;5.15;3.03;;;9.80;99.90;;;;;;5008902;28;20041;-74
2021/09/15 05:24:54;;;;;;;5.95;2.95;;;9.80;99.90;;;;;;5008891;28;20069;-66
2021/09/15 05:27:24;;;;;;;6.20;4.05;;;9.80;99.90;;;;;;5009138;28;20408;-70
2021/09/15 05:29:51;;;;;;;5.63;3.63;;;9.80;99.90;;;;;;5007198;28;20050;-70
2021/09/15 05:32:17;;;;;;;9.43;3.60;;;9.90;99.90;;;;;;5008779;28;20038;-71
2021/09/15 05:34:45;;;;;;;6.30;3.10;;;9.90;99.90;;;;;;5025556;28;20066;-68
2021/09/15 05:37:11;;;;;;;7.90;4.55;;;10.00;99.90;;;;;;5011888;28;20053;-68
2021/09/15 05:39:38;;;;;;;5.20;3.67;;;10.10;99.90;;;;;;5011638;28;20257;-63
2021/09/15 05:42:05;;;;;;;6.35;4.57;;;10.10;99.90;;;;;;5011417;28;20045;-66
2021/09/15 05:44:33;;;;;;;10.10;4.38;;;10.20;99.90;;;;;;5027522;28;20046;-68
2021/09/15 05:47:00;;;;;;;6.18;4.20;;;10.30;99.90;;;;;;5011926;28;20363;-63
2021/09/15 05:49:31;;;;;;;6.93;4.40;;;10.30;99.90;;;;;;5010527;28;20440;-66
2021/09/15 05:51:58;;;;;;;9.27;4.10;;;10.40;99.90;;;;;;5012827;28;20389;-63
2021/09/15 05:54:25;;;;;;;7.30;5.10;;;10.50;99.90;;;;;;5011431;28;20152;-66
2021/09/15 05:56:52;;;;;;;9.07;5.70;;;10.60;99.90;;;;;;5011194;28;20384;-72
2021/09/15 05:59:19;;;;;;;5.38;3.78;;;10.60;99.90;;;;;;5011664;28;20192;-66
2021/09/15 06:01:46;;;;;;;9.05;4.97;;;10.70;99.90;;;;;;5009558;28;20102;-65
2021/09/15 06:04:14;;;;;;;7.00;4.35;;;10.80;99.90;;;;;;5028062;28;20496;-64
2021/09/15 06:06:52;;;;;;;4.20;3.80;;;10.90;99.90;;;;;;5010589;28;20054;-64
2021/09/15 06:09:21;;;;;;;8.00;4.20;;;11.00;99.90;;;;;;5011151;28;20525;-63
2021/09/15 06:11:48;;;;;;;9.02;4.35;;;11.10;99.90;;;;;;5009538;28;20103;-63
2021/09/15 06:14:15;;;;;;;8.50;3.67;;;11.20;99.90;;;;;;5011176;28;20435;-69
2021/09/15 06:16:43;;;;;;;4.18;2.88;;;11.30;99.90;;;;;;5027402;28;20056;-65
2021/09/15 06:19:11;;;;;;;15.95;3.10;;;11.30;99.90;;;;;;5027718;28;20056;-63
2021/09/15 06:22:04;;;;;;;3.42;2.60;;;11.40;99.90;;;;;;5009811;28;20042;-66
2021/09/15 06:24:53;;;;;;;2.88;2.67;;;11.50;99.90;;;;;;5012806;28;20500;-64
2021/09/15 06:27:24;;;;;;;9.80;2.38;;;11.60;99.90;;;;;;5011137;28;20061;-70
2021/09/15 06:29:51;;;;;;;4.75;2.83;;;11.60;99.90;;;;;;5010942;28;20410;-63
2021/09/15 06:32:20;;;;;;;3.78;1.90;;;11.70;99.90;;;;;;5012631;28;20129;-65
2021/09/15 06:34:47;;;;;;;1.85;1.73;;;11.70;99.90;;;;;;5012276;28;20057;-64
2021/09/15 06:37:15;;;;;;;2.38;1.73;;;11.70;99.90;;;;;;5012156;28;20092;-67
2021/09/15 06:39:42;;;;;;;2.15;1.95;;;11.70;99.90;;;;;;5010917;28;20447;-73
2021/09/15 06:42:10;;;;;;;2.60;2.00;;;11.70;99.90;;;;;;5012256;28;20128;-71
2021/09/15 06:44:37;;;;;;;3.90;2.20;;;11.80;99.90;;;;;;5012041;28;20050;-66
2021/09/15 06:47:04;;;;;;;5.05;1.95;;;11.90;99.90;;;;;;5012399;28;20078;-65
2021/09/15 06:49:31;;;;;;;3.65;2.08;;;11.90;99.90;;;;;;5010746;28;20132;-66
2021/09/15 06:51:58;;;;;;;3.40;2.35;;;12.00;99.90;;;;;;5011971;28;20412;-65
2021/09/15 06:54:25;;;;;;;1.48;1.38;;;12.10;99.90;;;;;;5011662;28;20165;-71
2021/09/15 06:56:52;;;;;;;2.90;1.30;;;12.30;99.90;;;;;;5011741;28;20084;-64
2021/09/15 06:59:21;;;;;;;2.85;1.42;;;12.40;99.90;;;;;;5011856;28;20400;-71
2021/09/15 07:01:48;;;;;;;2.63;1.88;;;12.40;99.90;;;;;;5009476;28;20133;-64
2021/09/15 07:04:15;;;;;;;2.53;1.52;;;12.50;99.90;;;;;;5011746;28;20049;-66
2021/09/15 07:06:42;;;;;;;6.63;1.75;;;12.60;99.90;;;;;;5011625;28;20058;-65
2021/09/15 07:09:09;;;;;;;1.63;1.52;;;12.70;99.90;;;;;;5011309;28;20073;-66
2021/09/15 07:11:36;;;;;;;1.70;1.05;;;12.80;99.90;;;;;;5009603;28;20054;-66
2021/09/15 07:14:03;;;;;;;2.95;1.05;;;12.80;99.90;;;;;;5011422;28;20376;-64
2021/09/15 07:16:32;;;;;;;5.13;1.40;;;12.90;99.90;;;;;;5010838;28;20165;-70
2021/09/15 07:18:59;;;;;;;4.07;1.25;;;13.00;99.90;;;;;;5011062;28;20054;-63
2021/09/15 07:21:26;;;;;;;1.33;1.10;;;13.00;99.90;;;;;;5009719;28;20108;-67
2021/09/15 07:23:53;;;;;;;1.15;1.05;;;13.10;99.90;;;;;;5010626;28;20049;-67
2021/09/15 07:26:20;;;;;;;3.53;2.03;;;13.10;99.90;;;;;;5010947;28;20132;-68
2021/09/15 07:28:48;;;;;;;1.15;1.05;;;13.20;99.90;;;;;;5011036;28;20125;-69
2021/09/15 07:31:15;;;;;;;2.20;1.70;;;13.30;99.90;;;;;;5010997;28;20485;-68
2021/09/15 07:33:41;;;;;;;4.38;1.20;;;13.40;99.90;;;;;;5009537;28;20133;-70
2021/09/15 07:36:08;;;;;;;2.78;0.93;;;13.50;99.90;;;;;;5010908;28;20092;-67
2021/09/15 07:38:35;;;;;;;2.15;0.70;;;13.50;99.90;;;;;;5010674;28;20500;-73
2021/09/15 07:41:03;;;;;;;9.15;2.45;;;13.60;99.90;;;;;;5011015;28;20058;-69
2021/09/15 07:43:30;;;;;;;0.98;0.90;;;13.60;99.90;;;;;;5009524;28;20072;-68
2021/09/15 07:45:57;;;;;;;5.75;1.27;;;13.70;99.90;;;;;;5010559;28;20420;-69
2021/09/15 07:48:24;;;;;;;1.05;0.57;;;13.70;99.90;;;;;;5010900;28;20084;-69
2021/09/15 07:50:51;;;;;;;0.80;0.80;;;13.80;99.90;;;;;;5010912;28;20049;-67
2021/09/15 07:53:19;;;;;;;0.95;0.63;;;13.80;99.90;;;;;;5010691;28;20069;-69
2021/09/15 07:55:47;;;;;;;1.88;1.15;;;13.80;99.90;;;;;;5009260;28;20491;-73
2021/09/15 07:58:13;;;;;;;0.70;0.70;;;13.90;99.90;;;;;;5010572;28;20141;-63
2021/09/15 08:00:42;;;;;;;0.43;0.40;;;14.00;99.90;;;;;;5010624;28;20076;-75
2021/09/15 08:03:09;;;;;;;0.63;0.52;;;14.00;99.90;;;;;;5010427;28;20046;-67
2021/09/15 08:05:36;;;;;;;1.23;0.75;;;14.10;99.90;;;;;;5009321;28;20112;-66
2021/09/15 08:08:03;;;;;;;0.52;0.52;;;14.20;99.90;;;;;;5010650;28;20518;-72
2021/09/15 08:10:30;;;;;;;1.05;0.57;;;14.20;99.90;;;;;;5010615;28;20042;-64
2021/09/15 08:12:57;;;;;;;2.20;1.10;;;14.30;99.90;;;;;;5010486;28;20096;-69
2021/09/15 08:15:27;;;;;;;1.38;1.27;;;14.40;99.90;;;;;;5009809;28;20149;-66
2021/09/15 08:17:54;;;;;;;1.45;1.33;;;14.40;99.90;;;;;;5008597;28;20050;-66
2021/09/15 08:20:22;;;;;;;2.78;1.02;;;14.40;99.90;;;;;;5010458;28;20050;-65
2021/09/15 08:22:49;;;;;;;1.40;1.30;;;14.50;99.90;;;;;;5010459;28;20059;-63
2021/09/15 08:25:16;;;;;;;1.60;1.33;;;14.50;99.90;;;;;;5010765;28;20050;-70
2021/09/15 08:27:43;;;;;;;1.55;1.00;;;14.50;99.90;;;;;;5008923;28;20066;-67
2021/09/15 08:30:11;;;;;;;2.15;1.13;;;14.50;99.90;;;;;;5013719;28;20164;-63
2021/09/15 08:32:39;;;;;;;0.98;0.80;;;14.50;99.90;;;;;;5014277;28;20046;-64
2021/09/15 08:35:07;;;;;;;2.03;1.20;;;14.60;99.90;;;;;;5014333;28;20078;-64
2021/09/15 08:37:38;;;;;;;1.50;1.05;;;14.60;99.90;;;;;;5012929;28;20088;-64
2021/09/15 08:40:08;;;;;;;2.70;1.30;;;14.60;99.90;;;;;;5014447;28;20046;-65
2021/09/15 08:42:35;;;;;;;1.23;1.00;;;14.50;99.90;;;;;;5014289;28;20050;-66
2021/09/15 08:45:07;;;;;;;2.50;0.90;;;14.50;99.90;;;;;;5014207;28;20065;-64
2021/09/15 08:47:41;;;;;;;1.27;1.17;;;14.50;99.90;;;;;;5012688;28;20100;-66
2021/09/15 08:50:10;;;;;;;1.25;0.88;;;14.40;99.90;;;;;;5012511;28;20073;-66
2021/09/15 08:52:37;;;;;;;1.15;1.05;;;14.40;99.90;;;;;;5013909;28;20042;-66
2021/09/15 08:55:05;;;;;;;4.18;1.33;;;14.50;99.90;;;;;;5014132;28;20130;-66
2021/09/15 08:57:33;;;;;;;1.15;1.05;;;14.60;99.90;;;;;;5012304;28;20519;-66
2021/09/15 09:00:03;;;;;;;1.92;1.10;;;14.70;99.90;;;;;;5013815;28;20050;-70
2021/09/15 09:02:37;;;;;;;3.95;1.15;;;14.70;99.90;;;;;;5011432;28;20038;-66
2021/09/15 09:05:05;;;;;;;1.98;0.80;;;14.80;99.90;;;;;;5013453;28;20427;-64
2021/09/15 09:07:33;;;;;;;1.15;0.95;;;14.90;99.90;;;;;;5012204;28;20104;-69
2021/09/15 09:10:08;;;;;;;1.20;0.93;;;14.90;99.90;;;;;;5013492;28;20480;-69
2021/09/15 09:12:38;;;;;;;2.97;1.00;;;14.90;99.90;;;;;;5013703;28;20479;-70
2021/09/15 09:15:22;;;;;;;1.13;0.90;;;14.90;99.90;;;;;;5013557;28;20553;-66
2021/09/15 09:18:00;;;;;;;1.37;1.27;;;14.90;99.90;;;;;;5010831;28;20046;-64
2021/09/15 09:20:31;;;;;;;1.30;1.00;;;15.00;99.90;;;;;;5013501;28;20338;-64
2021/09/15 09:23:16;;;;;;;0.95;0.82;;;14.90;99.90;;;;;;5011933;28;20052;-66
2021/09/15 09:25:49;;;;;;;2.40;1.05;;;15.00;99.90;;;;;;5011927;28;20196;-68
2021/09/15 09:28:36;;;;;;;0.95;0.85;;;15.00;99.90;;;;;;5013233;28;20112;-67
2021/09/15 09:31:05;;;;;;;1.48;1.00;;;15.10;99.90;;;;;;5013382;28;20076;-65
2021/09/15 09:33:45;;;;;;;0.85;0.80;;;15.10;99.90;;;;;;5027107;28;20050;-67
2021/09/15 09:36:12;;;;;;;0.95;0.80;;;15.20;99.90;;;;;;5013038;28;20081;-66
2021/09/15 09:38:44;;;;;;;1.77;1.10;;;15.30;99.90;;;;;;5013116;28;20050;-64
2021/09/15 09:41:20;;;;;;;1.60;1.13;;;15.30;99.90;;;;;;5010392;28;20048;-67
2021/09/15 09:43:54;;;;;;;3.00;1.00;;;15.30;99.90;;;;;;5010444;28;20515;-68
2021/09/15 09:46:34;;;;;;;1.25;0.90;;;15.50;99.90;;;;;;5027883;28;20124;-67
2021/09/15 09:49:11;;;;;;;0.80;0.77;;;15.40;99.90;;;;;;5012288;28;20046;-65
2021/09/15 09:51:41;;;;;;;0.93;0.80;;;15.40;99.90;;;;;;5010883;28;20460;-66
2021/09/15 09:54:22;;;;;;;1.38;1.08;;;15.50;99.90;;;;;;5013136;28;20391;-67
2021/09/15 09:56:57;;;;;;;2.20;0.68;;;15.40;99.90;;;;;;5011303;28;20457;-66
2021/09/15 09:59:27;;;;;;;2.33;0.95;;;15.50;99.90;;;;;;5013012;28;20053;-75
2021/09/15 10:01:57;;;;;;;0.63;0.63;;;15.60;99.90;;;;;;5011670;28;20097;-62
2021/09/15 10:04:24;;;;;;;5.30;1.13;;;15.70;99.90;;;;;;5012569;28;20052;-67
2021/09/15 10:06:52;;;;;;;1.23;0.70;;;15.90;99.90;;;;;;5012808;28;20476;-68
2021/09/15 10:09:21;;;;;;;0.93;0.77;;;15.90;99.90;;;;;;5012732;28;20054;-62
2021/09/15 10:11:48;;;;;;;0.90;0.75;;;15.70;99.90;;;;;;5011235;28;20048;-64
2021/09/15 10:14:17;;;;;;;1.10;0.93;;;15.70;99.90;;;;;;5012612;28;20137;-66
2021/09/15 10:16:54;;;;;;;3.80;1.65;;;15.70;99.90;;;;;;5010904;28;20038;-63
2021/09/15 10:19:28;;;;;;;1.10;1.00;;;15.70;99.90;;;;;;5012617;28;20050;-66
2021/09/15 10:22:00;;;;;;;1.40;0.98;;;15.70;99.90;;;;;;5011274;28;20104;-63
2021/09/15 10:24:53;;;;;;;1.30;0.82;;;15.70;99.90;;;;;;5012345;28;20042;-65
2021/09/15 10:27:23;;;;;;;1.23;0.82;;;15.90;99.90;;;;;;5012205;28;20042;-69
2021/09/15 10:30:13;;;;;;;1.20;1.10;;;16.00;99.90;;;;;;5011291;28;20112;-63
2021/09/15 10:32:50;;;;;;;0.80;0.63;;;16.20;99.90;;;;;;5013048;28;20053;-63
2021/09/15 10:35:43;;;;;;;1.33;1.17;;;16.20;99.90;;;;;;5012797;28;20049;-63
2021/09/15 10:38:09;;;;;;;1.25;0.77;;;16.20;99.90;;;;;;5010976;28;20443;-67
2021/09/15 10:40:38;;;;;;;2.00;1.73;;;16.20;99.90;;;;;;5012208;28;20054;-73
2021/09/15 10:43:39;;;;;;;1.23;0.90;;;15.90;99.90;;;;;;5012099;28;20069;-64
2021/09/15 10:46:18;;;;;;;1.02;0.90;;;15.70;99.90;;;;;;5011673;28;20465;-64
2021/09/15 10:48:46;;;;;;;2.63;0.90;;;15.80;99.90;;;;;;5012023;28;20045;-64
2021/09/15 10:51:19;;;;;;;1.10;0.90;;;15.80;99.90;;;;;;5010304;28;20439;-63
2021/09/15 10:53:46;;;;;;;3.28;1.13;;;15.80;99.90;;;;;;5010468;28;20423;-72
2021/09/15 10:56:34;;;;;;;0.90;0.85;;;15.70;99.90;;;;;;5011608;28;20507;-63
2021/09/15 10:59:01;;;;;;;1.08;0.88;;;15.70;99.90;;;;;;5011702;28;20041;-66
2021/09/15 11:01:39;;;;;;;3.53;1.08;;;15.70;99.90;;;;;;5009693;28;20042;-68
2021/09/15 11:04:06;;;;;;;0.70;0.70;;;15.80;99.90;;;;;;5011728;28;20050;-66
2021/09/15 11:06:35;;;;;;;1.90;0.85;;;15.80;99.90;;;;;;5011888;28;20447;-65
2021/09/15 11:09:02;;;;;;;1.83;0.93;;;15.80;99.90;;;;;;5011427;28;20125;-63
2021/09/15 11:11:29;;;;;;;0.60;0.57;;;15.70;99.90;;;;;;5024989;28;20476;-67
2021/09/15 11:13:57;;;;;;;1.23;0.80;;;15.80;99.90;;;;;;5011451;28;20108;-66
2021/09/15 11:16:52;;;;;;;2.80;0.80;;;15.70;99.90;;;;;;5011066;28;20081;-65
2021/09/15 11:19:30;;;;;;;0.70;0.70;;;15.90;99.90;;;;;;5011131;28;20497;-70
2021/09/15 11:21:59;;;;;;;1.90;1.23;;;16.00;99.90;;;;;;5010211;28;20050;-68
2021/09/15 11:24:30;;;;;;;1.05;0.82;;;16.20;99.90;;;;;;5011812;28;20062;-68
2021/09/15 11:26:58;;;;;;;1.08;0.70;;;16.30;99.90;;;;;;5011489;28;20049;-65
2021/09/15 11:29:38;;;;;;;3.65;0.65;;;16.40;99.90;;;;;;5010802;28;20069;-66
2021/09/15 11:32:06;;;;;;;1.07;0.60;;;16.50;99.90;;;;;;5011007;28;20042;-63
2021/09/15 11:34:37;;;;;;;0.40;0.40;;;16.40;99.90;;;;;;5011237;28;20308;-62
2021/09/15 11:37:04;;;;;;;0.80;0.70;;;16.50;99.90;;;;;;5011216;28;20117;-62
2021/09/15 11:39:31;;;;;;;1.58;0.88;;;16.60;99.90;;;;;;5009769;28;20070;-65
2021/09/15 11:42:02;;;;;;;1.23;1.13;;;16.60;99.90;;;;;;5011026;28;20107;-65
2021/09/15 11:44:29;;;;;;;1.05;0.68;;;16.70;99.90;;;;;;5011285;28;20111;-62
2021/09/15 11:47:01;;;;;;;1.30;1.20;;;16.70;99.90;;;;;;5011263;28;20058;-64
2021/09/15 11:49:30;;;;;;;1.15;0.85;;;16.70;99.90;;;;;;5009774;28;20108;-64
2021/09/15 11:52:00;;;;;;;0.93;0.60;;;16.80;99.90;;;;;;5011182;28;20042;-70
2021/09/15 11:54:27;;;;;;;1.25;0.73;;;16.90;99.90;;;;;;5011589;28;20077;-63
2021/09/15 11:57:06;;;;;;;2.33;0.85;;;16.90;99.90;;;;;;5011174;28;20042;-71
2021/09/15 11:59:33;;;;;;;1.58;0.52;;;16.80;99.90;;;;;;5009260;28;20042;-62
2021/09/15 12:02:05;;;;;;;0.52;0.45;;;16.80;99.90;;;;;;5010697;28;20489;-64
2021/09/15 12:04:35;;;;;;;2.35;0.60;;;16.90;99.90;;;;;;5010181;28;20413;-66
2021/09/15 12:07:03;;;;;;;0.77;0.70;;;17.00;99.90;;;;;;5010775;28;20070;-72
2021/09/15 12:09:31;;;;;;;0.70;0.70;;;17.00;99.90;;;;;;5009442;28;20057;-67
2021/09/15 12:11:58;;;;;;;0.73;0.57;;;17.00;99.90;;;;;;5010750;28;20046;-65
2021/09/15 12:14:34;;;;;;;0.65;0.65;;;17.00;99.90;;;;;;5009658;28;20133;-63
2021/09/15 12:17:04;;;;;;;1.27;0.93;;;17.10;99.90;;;;;;5010807;28;20045;-65
2021/09/15 12:19:31;;;;;;;0.63;0.55;;;17.00;99.90;;;;;;5009298;28;20041;-66
2021/09/15 12:21:58;;;;;;;2.20;0.68;;;17.00;99.90;;;;;;5010469;28;20049;-74
2021/09/15 12:24:26;;;;;;;1.50;0.70;;;17.00;99.90;;;;;;5025471;28;20472;-65
2021/09/15 12:26:54;;;;;;;2.15;0.88;;;16.90;99.90;;;;;;5010679;28;20052;-65
2021/09/15 12:29:22;;;;;;;0.57;0.50;;;17.00;99.90;;;;;;5010765;28;20049;-69
2021/09/15 12:31:49;;;;;;;1.60;0.50;;;17.00;99.90;;;;;;5009296;28;20061;-64
2021/09/15 12:34:30;;;;;;;1.02;0.63;;;17.00;99.90;;;;;;5010665;28;20042;-64
2021/09/15 12:37:18;;;;;;;0.50;0.50;;;17.00;99.90;;;;;;5010110;28;20050;-67
2021/09/15 12:39:56;;;;;;;2.05;0.77;;;17.00;99.90;;;;;;5009113;28;20272;-68
2021/09/15 12:42:35;;;;;;;0.82;0.73;;;17.10;99.90;;;;;;5010557;28;20076;-64
2021/09/15 12:45:13;;;;;;;1.67;0.85;;;17.00;99.90;;;;;;5010266;28;20208;-64
2021/09/15 12:47:48;;;;;;;1.52;1.00;;;17.00;99.90;;;;;;5009051;28;20104;-72
2021/09/15 12:50:21;;;;;;;0.88;0.68;;;17.10;99.90;;;;;;5010638;28;20065;-64
2021/09/15 12:52:57;;;;;;;4.70;0.73;;;17.00;99.90;;;;;;5010333;28;20042;-67
2021/09/15 12:55:26;;;;;;;0.60;0.45;;;16.90;99.90;;;;;;5010351;28;20070;-68
2021/09/15 12:57:59;;;;;;;1.60;0.75;;;17.00;99.90;;;;;;5008677;28;20125;-65
2021/09/15 13:00:31;;;;;;;0.90;0.70;;;17.10;99.90;;;;;;5010266;28;20144;-65
2021/09/15 13:03:04;;;;;;;1.75;1.02;;;17.20;99.90;;;;;;5010273;28;20120;-65
2021/09/15 13:05:36;;;;;;;0.60;0.40;;;17.50;99.90;;;;;;5008992;28;20078;-64
2021/09/15 13:08:03;;;;;;;0.60;0.60;;;17.70;99.90;;;;;;5010302;28;20125;-63
2021/09/15 13:10:31;;;;;;;1.02;0.90;;;17.80;99.90;;;;;;5010159;28;20443;-62
2021/09/15 13:12:59;;;;;;;1.20;0.68;;;17.80;99.90;;;;;;5010244;28;20064;-62
2021/09/15 13:15:26;;;;;;;2.35;0.90;;;17.90;99.90;;;;;;5009587;28;20049;-64
2021/09/15 13:17:54;;;;;;;0.77;0.77;;;17.90;99.90;;;;;;5013604;28;20046;-62